Time;durP1;ratioP1;P1;durP2;ratioP2;P2;SDS_P1;SDS_P2;PMS_P1;PMS_P2;Temp;Humidity;BMP_temperature;BMP_pressure;BME280_temperature;BME280_humidity;BME280_pressure;Samples;Min_cycle;Max_cycle;Signal;HPM_P1;HPM_P2
2021/08/14 00:00:11;;;;;;;22.90;13.40;;;25.30;49.30;;;;;;5076054;28;20463;-89
2021/08/14 00:02:38;;;;;;;22.60;11.40;;;25.30;49.30;;;;;;5076292;28;20557;-88
2021/08/14 00:05:05;;;;;;;17.33;11.30;;;25.30;49.30;;;;;;5075746;28;20487;-89
2021/08/14 00:07:32;;;;;;;31.10;12.57;;;25.20;49.50;;;;;;5075718;28;20835;-88
2021/08/14 00:09:59;;;;;;;24.00;10.43;;;25.00;49.80;;;;;;5075539;28;20459;-88
2021/08/14 00:12:27;;;;;;;30.07;11.30;;;25.10;49.60;;;;;;5075798;28;20447;-88
2021/08/14 00:14:54;;;;;;;17.03;11.40;;;25.00;49.80;;;;;;5075236;28;20477;-88
2021/08/14 00:17:21;;;;;;;18.40;11.70;;;25.00;49.90;;;;;;5075453;28;21029;-88
2021/08/14 00:19:48;;;;;;;16.93;10.40;;;24.80;50.70;;;;;;5075612;28;20464;-88
2021/08/14 00:22:15;;;;;;;16.60;10.50;;;24.70;50.70;;;;;;5075762;28;20877;-88
2021/08/14 00:24:42;;;;;;;27.43;11.87;;;24.90;50.30;;;;;;5076701;28;20459;-88
2021/08/14 00:27:09;;;;;;;14.10;10.13;;;24.90;50.40;;;;;;5075998;28;20501;-88
2021/08/14 00:29:37;;;;;;;17.90;11.43;;;24.90;49.90;;;;;;5075993;28;20451;-88
2021/08/14 00:32:05;;;;;;;21.60;11.17;;;24.80;50.60;;;;;;5075418;28;20458;-88
2021/08/14 00:34:32;;;;;;;24.67;12.47;;;24.80;50.60;;;;;;5075157;28;20883;-88
2021/08/14 00:36:59;;;;;;;16.70;9.80;;;24.80;50.00;;;;;;5075477;28;20471;-89
2021/08/14 00:39:26;;;;;;;15.43;10.30;;;24.90;49.50;;;;;;5075017;28;20457;-88
2021/08/14 00:41:53;;;;;;;17.27;9.30;;;24.80;50.00;;;;;;5075581;28;20451;-88
2021/08/14 00:44:20;;;;;;;13.87;8.73;;;24.60;50.20;;;;;;5075977;28;20498;-88
2021/08/14 00:46:48;;;;;;;23.10;10.20;;;24.70;49.80;;;;;;5075217;28;20944;-88
2021/08/14 00:49:15;;;;;;;21.10;10.43;;;24.70;50.10;;;;;;5074699;28;20436;-88
2021/08/14 00:51:42;;;;;;;15.43;9.20;;;24.60;50.60;;;;;;5074547;28;20512;-88
2021/08/14 00:54:09;;;;;;;16.27;9.90;;;24.60;50.30;;;;;;5074823;28;20481;-88
2021/08/14 00:56:37;;;;;;;15.73;9.80;;;24.70;50.30;;;;;;5074886;28;20505;-88
2021/08/14 00:59:06;;;;;;;14.57;9.50;;;24.80;50.00;;;;;;5075223;28;20530;-88
2021/08/14 01:01:33;;;;;;;15.17;9.37;;;24.80;50.00;;;;;;5074678;28;20447;-88
2021/08/14 01:04:03;;;;;;;28.10;9.63;;;24.60;50.40;;;;;;5074329;28;20546;-88
2021/08/14 01:06:30;;;;;;;21.83;10.37;;;24.30;51.10;;;;;;5077957;28;20521;-87
2021/08/14 01:08:58;;;;;;;14.17;9.90;;;24.20;51.60;;;;;;5094133;28;20439;-88
2021/08/14 01:11:25;;;;;;;11.90;9.03;;;24.00;51.90;;;;;;5085809;28;20436;-88
2021/08/14 01:13:52;;;;;;;14.93;9.40;;;23.90;52.20;;;;;;5074089;28;20558;-89
2021/08/14 01:16:19;;;;;;;27.47;11.00;;;23.90;52.30;;;;;;5074186;28;20475;-88
2021/08/14 01:18:48;;;;;;;16.33;10.10;;;24.10;52.10;;;;;;5073875;28;20483;-89
2021/08/14 01:21:21;;;;;;;20.80;11.13;;;24.30;51.40;;;;;;5074362;28;20443;-89
2021/08/14 01:23:50;;;;;;;20.13;10.97;;;24.10;52.00;;;;;;5074234;28;20895;-88
2021/08/14 01:26:18;;;;;;;19.00;10.60;;;23.70;53.10;;;;;;5074213;28;20530;-88
2021/08/14 01:28:47;;;;;;;16.47;9.83;;;23.40;53.90;;;;;;5074048;28;20435;-89
2021/08/14 01:31:15;;;;;;;18.10;9.13;;;23.80;53.10;;;;;;5074023;28;20538;-89
2021/08/14 01:33:44;;;;;;;18.90;10.80;;;23.90;52.70;;;;;;5074073;28;20463;-88
2021/08/14 01:36:14;;;;;;;15.63;9.67;;;23.80;52.60;;;;;;5074287;28;20527;-88
2021/08/14 01:38:46;;;;;;;20.40;11.03;;;23.90;52.30;;;;;;5074472;28;20514;-88
2021/08/14 01:41:13;;;;;;;15.70;9.90;;;23.90;52.20;;;;;;5074004;28;20462;-88
2021/08/14 01:43:59;;;;;;;15.60;9.90;;;23.90;52.20;;;;;;5074189;28;20559;-88
2021/08/14 01:46:30;;;;;;;17.70;9.37;;;24.10;51.50;;;;;;5075149;28;20459;-88
2021/08/14 01:48:57;;;;;;;12.30;8.63;;;24.20;51.30;;;;;;5074224;28;20793;-88
2021/08/14 01:51:24;;;;;;;18.77;10.87;;;24.30;50.70;;;;;;5074561;28;20482;-88
2021/08/14 01:53:53;;;;;;;17.47;11.13;;;24.30;50.80;;;;;;5073629;28;20447;-88
2021/08/14 01:56:22;;;;;;;15.90;10.47;;;24.50;50.20;;;;;;5074128;28;20479;-88
2021/08/14 01:58:50;;;;;;;12.33;8.30;;;24.40;50.20;;;;;;5073701;28;20555;-88
2021/08/14 02:01:18;;;;;;;11.50;8.30;;;24.30;50.40;;;;;;5087755;28;20483;-88
2021/08/14 02:03:46;;;;;;;14.03;9.97;;;24.30;50.30;;;;;;5073622;28;20956;-88
2021/08/14 02:06:13;;;;;;;14.80;10.00;;;24.40;49.90;;;;;;5073937;28;20444;-88
2021/08/14 02:08:40;;;;;;;11.43;8.20;;;24.30;50.40;;;;;;5073740;28;20799;-88
2021/08/14 02:11:13;;;;;;;16.67;8.93;;;24.40;50.40;;;;;;5073703;28;20530;-88
2021/08/14 02:13:40;;;;;;;15.33;9.70;;;24.40;50.00;;;;;;5073473;28;20447;-88
2021/08/14 02:16:07;;;;;;;25.37;10.10;;;24.40;49.90;;;;;;5073617;28;20994;-88
2021/08/14 02:18:36;;;;;;;16.93;9.67;;;24.40;49.80;;;;;;5073613;28;20479;-88
2021/08/14 02:21:03;;;;;;;20.77;8.70;;;24.30;50.40;;;;;;5073363;28;20466;-88
2021/08/14 02:23:31;;;;;;;16.10;8.97;;;24.40;50.20;;;;;;5073958;28;20829;-88
2021/08/14 02:25:58;;;;;;;16.43;9.93;;;24.40;50.10;;;;;;5073544;28;20475;-88
2021/08/14 02:28:25;;;;;;;23.30;9.87;;;24.30;50.00;;;;;;5073555;28;20524;-88
2021/08/14 02:30:52;;;;;;;22.37;9.73;;;24.20;50.00;;;;;;5073912;28;20527;-88
2021/08/14 02:33:19;;;;;;;17.00;9.67;;;24.10;50.50;;;;;;5073140;28;20555;-88
2021/08/14 02:35:47;;;;;;;15.00;9.70;;;24.30;50.40;;;;;;5073446;28;20564;-88
2021/08/14 02:38:15;;;;;;;17.87;11.17;;;23.90;51.00;;;;;;5073660;28;20489;-88
2021/08/14 02:40:42;;;;;;;33.33;11.90;;;23.60;51.60;;;;;;5073472;28;20464;-88
2021/08/14 02:43:08;;;;;;;18.50;10.00;;;23.90;51.50;;;;;;5073424;28;20531;-88
2021/08/14 02:45:35;;;;;;;12.37;8.67;;;24.20;50.70;;;;;;5073343;28;20471;-88
2021/08/14 02:48:02;;;;;;;18.17;9.63;;;24.10;50.50;;;;;;5073066;28;20537;-88
2021/08/14 02:50:30;;;;;;;18.17;10.07;;;23.90;50.80;;;;;;5073295;28;20475;-88
2021/08/14 02:52:58;;;;;;;12.40;8.70;;;23.60;51.80;;;;;;5073154;28;20435;-88
2021/08/14 02:55:26;;;;;;;16.00;10.43;;;23.70;52.10;;;;;;5073189;28;20478;-88
2021/08/14 02:57:53;;;;;;;11.30;8.57;;;23.60;51.70;;;;;;5072791;28;20427;-88
2021/08/14 03:00:20;;;;;;;20.50;9.73;;;23.30;52.70;;;;;;5073107;28;20463;-88
2021/08/14 03:02:47;;;;;;;19.37;10.90;;;23.20;52.80;;;;;;5072948;28;20439;-88
2021/08/14 03:05:14;;;;;;;15.40;8.67;;;22.90;53.70;;;;;;5072640;28;20825;-88
2021/08/14 03:07:41;;;;;;;11.90;8.83;;;22.80;54.20;;;;;;5072960;28;20514;-88
2021/08/14 03:10:10;;;;;;;20.60;10.90;;;22.60;54.40;;;;;;5072943;28;20534;-88
2021/08/14 03:12:37;;;;;;;23.67;9.70;;;22.70;54.10;;;;;;5073249;28;20505;-88
2021/08/14 03:15:05;;;;;;;17.70;9.63;;;22.50;54.40;;;;;;5073093;28;20519;-88
2021/08/14 03:17:32;;;;;;;37.47;10.03;;;22.60;54.70;;;;;;5076626;28;20456;-88
2021/08/14 03:20:00;;;;;;;23.23;10.07;;;22.90;53.90;;;;;;5077056;28;20478;-88
2021/08/14 03:22:27;;;;;;;13.37;9.07;;;22.70;54.10;;;;;;5076252;28;20941;-88
2021/08/14 03:24:54;;;;;;;17.00;10.47;;;22.40;55.20;;;;;;5076284;28;20520;-88
2021/08/14 03:27:22;;;;;;;12.43;9.27;;;22.30;55.50;;;;;;5076239;28;20956;-88
2021/08/14 03:29:49;;;;;;;15.10;9.07;;;22.60;55.00;;;;;;5084733;28;20497;-88
2021/08/14 03:32:16;;;;;;;14.03;9.83;;;23.00;53.60;;;;;;5089814;28;20482;-88
2021/08/14 03:34:43;;;;;;;16.07;9.17;;;23.30;52.80;;;;;;5081749;28;20475;-88
2021/08/14 03:37:10;;;;;;;15.70;10.40;;;23.30;52.60;;;;;;5077055;28;20466;-88
2021/08/14 03:39:38;;;;;;;11.43;8.53;;;23.30;52.60;;;;;;5076322;28;20443;-88
2021/08/14 03:42:05;;;;;;;14.93;8.30;;;23.40;52.20;;;;;;5076382;28;20542;-88
2021/08/14 03:44:34;;;;;;;13.53;8.60;;;23.80;52.00;;;;;;5075723;28;20502;-88
2021/08/14 03:47:01;;;;;;;26.10;10.27;;;23.80;50.90;;;;;;5076396;28;20482;-88
2021/08/14 03:49:28;;;;;;;16.57;10.27;;;23.50;51.60;;;;;;5076106;28;20471;-88
2021/08/14 03:51:55;;;;;;;21.60;10.47;;;23.50;51.60;;;;;;5075833;28;20929;-88
2021/08/14 03:54:21;;;;;;;14.30;9.97;;;23.40;51.90;;;;;;5076202;28;20458;-88
2021/08/14 03:56:48;;;;;;;20.50;9.73;;;23.30;51.90;;;;;;5076561;28;20785;-88
2021/08/14 03:59:15;;;;;;;13.97;10.43;;;23.10;52.40;;;;;;5076056;28;20527;-88
2021/08/14 04:01:43;;;;;;;14.30;9.63;;;22.90;52.60;;;;;;5075931;28;20537;-88
2021/08/14 04:04:10;;;;;;;12.00;9.33;;;23.30;53.40;;;;;;5075998;28;21060;-88
2021/08/14 04:06:37;;;;;;;16.73;9.27;;;23.40;51.80;;;;;;5091340;28;20575;-87
2021/08/14 04:09:04;;;;;;;13.73;9.70;;;23.30;51.70;;;;;;5094712;28;20482;-88
2021/08/14 04:11:31;;;;;;;12.60;9.20;;;23.20;52.20;;;;;;5076344;28;20463;-88
2021/08/14 04:13:58;;;;;;;12.90;8.17;;;23.10;53.10;;;;;;5075730;28;20520;-88
2021/08/14 04:16:24;;;;;;;14.80;8.97;;;23.50;52.70;;;;;;5075837;28;20479;-88
2021/08/14 04:18:53;;;;;;;13.03;9.17;;;23.70;51.70;;;;;;5075747;28;20497;-88
2021/08/14 04:21:20;;;;;;;17.40;10.17;;;23.90;51.70;;;;;;5075475;28;20547;-88
2021/08/14 04:23:46;;;;;;;13.27;8.90;;;24.00;50.50;;;;;;5075279;28;20459;-88
2021/08/14 04:26:13;;;;;;;11.67;8.50;;;23.70;50.90;;;;;;5075066;28;20442;-88
2021/08/14 04:28:40;;;;;;;19.13;9.20;;;23.60;51.00;;;;;;5074530;28;20432;-88
2021/08/14 04:31:07;;;;;;;19.80;9.50;;;23.30;51.80;;;;;;5074974;28;20949;-88
2021/08/14 04:33:34;;;;;;;13.13;9.60;;;23.30;51.80;;;;;;5075101;28;20487;-87
2021/08/14 04:36:02;;;;;;;14.07;9.57;;;23.40;51.60;;;;;;5075968;28;20888;-88
2021/08/14 04:38:29;;;;;;;18.10;8.63;;;23.60;51.60;;;;;;5074924;28;20458;-88
2021/08/14 04:40:56;;;;;;;12.13;8.70;;;23.90;51.10;;;;;;5075405;28;20958;-88
2021/08/14 04:43:23;;;;;;;26.20;9.40;;;24.00;50.30;;;;;;5075540;28;20517;-87
2021/08/14 04:45:50;;;;;;;13.60;8.40;;;23.80;51.50;;;;;;5075242;28;20873;-88
2021/08/14 04:48:17;;;;;;;22.10;10.67;;;23.70;50.70;;;;;;5074756;28;20538;-88
2021/08/14 04:50:43;;;;;;;20.07;9.60;;;23.80;50.70;;;;;;5074885;28;21006;-88
2021/08/14 04:53:12;;;;;;;14.10;8.87;;;24.00;50.60;;;;;;5075274;28;20463;-88
2021/08/14 04:55:39;;;;;;;12.30;8.90;;;24.10;50.10;;;;;;5078050;28;20510;-87
2021/08/14 04:58:05;;;;;;;14.87;8.83;;;24.30;49.80;;;;;;5075414;28;20925;-87
2021/08/14 05:00:32;;;;;;;12.80;8.67;;;24.20;49.20;;;;;;5075519;28;20471;-88
2021/08/14 05:02:59;;;;;;;15.07;8.60;;;23.80;50.00;;;;;;5075301;28;20448;-88
2021/08/14 05:05:26;;;;;;;19.87;9.77;;;24.00;50.60;;;;;;5077119;28;20435;-88
2021/08/14 05:07:53;;;;;;;16.07;9.50;;;24.10;49.60;;;;;;5079045;28;20448;-88
2021/08/14 05:10:21;;;;;;;14.97;7.93;;;23.80;50.10;;;;;;5075954;28;20530;-88
2021/08/14 05:12:48;;;;;;;21.40;9.27;;;23.80;50.70;;;;;;5076033;28;20535;-88
2021/08/14 05:15:15;;;;;;;14.80;9.00;;;23.90;50.40;;;;;;5075928;28;20481;-88
2021/08/14 05:17:42;;;;;;;13.50;9.20;;;24.10;49.90;;;;;;5078424;28;20475;-88
2021/08/14 05:20:10;;;;;;;14.37;8.03;;;24.10;49.80;;;;;;5077321;28;20570;-89
2021/08/14 05:22:37;;;;;;;14.07;9.50;;;24.60;49.50;;;;;;5079268;28;20478;-88
2021/08/14 05:25:04;;;;;;;14.40;8.60;;;25.10;48.80;;;;;;5077630;28;20499;-89
2021/08/14 05:27:32;;;;;;;19.40;10.60;;;25.10;48.30;;;;;;5077644;28;20478;-87
2021/08/14 05:29:59;;;;;;;32.80;9.93;;;25.00;48.70;;;;;;5079660;28;20483;-89
2021/08/14 05:32:26;;;;;;;14.27;10.07;;;25.10;48.30;;;;;;5080134;28;20431;-88
2021/08/14 05:34:53;;;;;;;19.73;10.40;;;25.20;47.90;;;;;;5077749;28;20869;-88
2021/08/14 05:37:20;;;;;;;13.47;9.03;;;25.40;48.80;;;;;;5083422;28;20439;-89
2021/08/14 05:39:47;;;;;;;16.87;9.70;;;26.10;48.30;;;;;;5092486;28;20466;-89
2021/08/14 05:42:14;;;;;;;14.20;9.83;;;27.50;47.30;;;;;;5092574;28;20455;-88
2021/08/14 05:44:43;;;;;;;19.63;9.17;;;28.20;45.00;;;;;;5093459;28;20494;-87
2021/08/14 05:47:10;;;;;;;19.53;9.07;;;28.80;42.90;;;;;;5094872;28;20447;-88
2021/08/14 05:49:37;;;;;;;24.73;9.50;;;29.80;41.70;;;;;;5091917;28;20447;-88
2021/08/14 05:52:05;;;;;;;13.53;8.30;;;30.70;39.60;;;;;;5078326;28;20451;-88
2021/08/14 05:54:34;;;;;;;15.20;8.20;;;30.30;39.50;;;;;;5080225;28;20470;-89
2021/08/14 05:57:00;;;;;;;14.97;8.73;;;30.70;37.30;;;;;;5077418;28;20574;-89
2021/08/14 05:59:27;;;;;;;13.60;8.37;;;31.10;37.50;;;;;;5076078;28;20432;-89
2021/08/14 06:01:56;;;;;;;13.93;7.70;;;31.00;36.60;;;;;;5075837;28;20531;-89
2021/08/14 06:04:23;;;;;;;15.30;8.43;;;31.40;37.30;;;;;;5074609;28;20554;-88
2021/08/14 06:06:49;;;;;;;15.50;9.50;;;31.60;36.30;;;;;;5078371;28;20486;-89
2021/08/14 06:09:16;;;;;;;18.33;8.43;;;31.90;35.70;;;;;;5077392;28;20885;-87
2021/08/14 06:11:43;;;;;;;11.20;8.33;;;32.30;35.00;;;;;;5075650;28;20501;-88
2021/08/14 06:14:10;;;;;;;15.20;9.37;;;32.40;33.70;;;;;;5076601;28;20530;-88
2021/08/14 06:16:38;;;;;;;13.53;8.43;;;32.90;33.40;;;;;;5075639;28;20532;-89
2021/08/14 06:19:06;;;;;;;15.10;7.73;;;33.40;33.00;;;;;;5076378;28;20435;-88
2021/08/14 06:21:34;;;;;;;18.47;8.87;;;33.80;31.60;;;;;;5075066;28;20443;-87
2021/08/14 06:24:00;;;;;;;24.07;8.60;;;34.20;30.80;;;;;;5074744;28;20463;-88
2021/08/14 06:26:27;;;;;;;14.53;7.80;;;34.10;31.10;;;;;;5073540;28;20482;-88
2021/08/14 06:28:54;;;;;;;17.17;7.80;;;34.40;30.60;;;;;;5073886;28;20781;-88
2021/08/14 06:31:21;;;;;;;15.73;9.20;;;35.20;29.40;;;;;;5076625;28;20467;-88
2021/08/14 06:33:48;;;;;;;20.97;8.73;;;35.10;29.30;;;;;;5073658;28;20498;-88
2021/08/14 06:36:16;;;;;;;14.23;7.07;;;35.30;29.30;;;;;;5074278;28;20533;-88
2021/08/14 06:38:43;;;;;;;10.60;6.70;;;35.20;28.30;;;;;;5077956;28;20431;-88
2021/08/14 06:41:10;;;;;;;14.20;7.43;;;35.20;28.40;;;;;;5076124;28;20424;-89
2021/08/14 06:43:37;;;;;;;12.20;6.87;;;35.30;27.60;;;;;;5074021;28;20475;-88
2021/08/14 06:46:04;;;;;;;14.30;7.20;;;34.90;28.20;;;;;;5074431;28;20869;-88
2021/08/14 06:48:35;;;;;;;12.03;6.70;;;34.70;28.70;;;;;;5073587;28;20841;-88
2021/08/14 06:51:02;;;;;;;10.43;6.97;;;34.00;29.20;;;;;;5077355;28;20796;-88
2021/08/14 06:53:31;;;;;;;11.00;6.87;;;34.70;28.20;;;;;;5082603;28;20471;-89
2021/08/14 06:55:58;;;;;;;9.27;6.90;;;34.70;29.10;;;;;;5077474;28;20467;-89
2021/08/14 06:58:25;;;;;;;16.30;7.40;;;35.90;27.60;;;;;;5078718;28;20504;-89
2021/08/14 07:00:52;;;;;;;14.43;7.40;;;35.70;27.90;;;;;;5079259;28;20439;-89
2021/08/14 07:03:19;;;;;;;11.70;6.70;;;35.90;27.10;;;;;;5081944;28;20476;-88
2021/08/14 07:05:46;;;;;;;11.27;7.17;;;35.50;27.50;;;;;;5092390;28;20431;-89
2021/08/14 07:08:13;;;;;;;14.77;6.93;;;35.80;27.30;;;;;;5085060;28;20435;-89
2021/08/14 07:10:41;;;;;;;11.40;6.87;;;36.00;26.80;;;;;;5079147;28;20538;-87
2021/08/14 07:13:08;;;;;;;15.37;7.13;;;36.20;26.80;;;;;;5077385;28;20530;-88
2021/08/14 07:15:35;;;;;;;10.90;6.53;;;36.20;26.70;;;;;;5077772;28;20454;-88
2021/08/14 07:18:02;;;;;;;15.00;7.07;;;36.30;26.50;;;;;;5076443;28;20505;-88
2021/08/14 07:20:38;;;;;;;15.90;6.83;;;36.40;26.30;;;;;;5079795;28;20867;-87
2021/08/14 07:23:05;;;;;;;14.67;6.73;;;36.90;25.80;;;;;;5079407;28;20874;-88
2021/08/14 07:25:32;;;;;;;15.03;6.80;;;37.60;26.00;;;;;;5097313;28;20470;-88
2021/08/14 07:28:01;;;;;;;10.20;6.53;;;37.90;24.70;;;;;;5094925;28;20438;-88
2021/08/14 07:30:27;;;;;;;15.50;7.30;;;38.30;24.20;;;;;;5080905;28;20435;-88
2021/08/14 07:32:54;;;;;;;13.43;7.57;;;38.50;24.40;;;;;;5080308;28;20479;-89
2021/08/14 07:35:21;;;;;;;14.40;7.60;;;38.20;24.70;;;;;;5079057;28;20476;-89
2021/08/14 07:37:49;;;;;;;19.97;7.50;;;38.20;24.70;;;;;;5077089;28;20545;-88
2021/08/14 07:40:17;;;;;;;10.70;6.53;;;38.60;24.10;;;;;;5078245;28;20525;-88
2021/08/14 07:42:44;;;;;;;21.53;7.87;;;38.00;24.40;;;;;;5080606;28;20484;-88
2021/08/14 07:45:17;;;;;;;18.47;6.73;;;38.00;24.60;;;;;;5078438;28;20482;-87
2021/08/14 07:47:47;;;;;;;19.53;7.47;;;38.10;24.20;;;;;;5080966;28;20510;-87
2021/08/14 07:50:19;;;;;;;11.17;6.63;;;38.00;24.20;;;;;;5081147;28;20441;-88
2021/08/14 07:52:46;;;;;;;15.57;6.93;;;37.60;25.00;;;;;;5078306;28;20454;-88
2021/08/14 07:55:13;;;;;;;24.83;7.10;;;38.10;24.70;;;;;;5079299;28;20471;-89
2021/08/14 07:57:41;;;;;;;13.53;6.40;;;37.50;24.60;;;;;;5077863;28;20482;-89
2021/08/14 08:00:10;;;;;;;10.60;6.77;;;38.00;24.40;;;;;;5080881;28;20453;-89
2021/08/14 08:02:39;;;;;;;16.70;7.60;;;37.90;24.30;;;;;;5078473;28;20526;-89
2021/08/14 08:05:08;;;;;;;9.33;7.37;;;37.70;24.80;;;;;;5083433;28;20471;-88
2021/08/14 08:07:37;;;;;;;9.53;6.60;;;37.80;25.10;;;;;;5082015;28;20442;-88
2021/08/14 08:10:06;;;;;;;17.17;7.53;;;38.90;23.90;;;;;;5084366;28;20446;-88
2021/08/14 08:12:34;;;;;;;11.90;7.60;;;37.90;24.70;;;;;;5079805;28;20514;-89
2021/08/14 08:15:01;;;;;;;18.80;7.70;;;38.40;24.70;;;;;;5078884;28;20513;-88
2021/08/14 08:17:28;;;;;;;19.93;8.70;;;37.90;25.20;;;;;;5075952;28;20466;-87
2021/08/14 08:19:56;;;;;;;29.70;8.00;;;38.90;24.40;;;;;;5077844;28;20538;-89
2021/08/14 08:22:23;;;;;;;11.63;8.10;;;38.00;24.90;;;;;;5080598;28;20997;-88
2021/08/14 08:24:50;;;;;;;9.03;7.10;;;37.30;25.80;;;;;;5081638;28;20481;-88
2021/08/14 08:27:17;;;;;;;11.80;8.50;;;37.60;25.70;;;;;;5082631;28;20446;-88
2021/08/14 08:29:44;;;;;;;21.97;7.97;;;37.60;25.90;;;;;;5080301;28;20864;-88
2021/08/14 08:32:11;;;;;;;20.47;9.07;;;37.60;25.40;;;;;;5089017;28;20477;-89
2021/08/14 08:34:38;;;;;;;26.83;7.57;;;37.70;25.50;;;;;;5084882;28;20455;-89
2021/08/14 08:37:07;;;;;;;9.37;6.87;;;38.40;24.60;;;;;;5083734;28;20524;-87
2021/08/14 08:39:37;;;;;;;13.53;7.40;;;38.10;24.80;;;;;;5087989;28;20508;-88
2021/08/14 08:42:07;;;;;;;12.47;7.60;;;38.20;24.40;;;;;;5081919;28;20915;-88
2021/08/14 08:44:35;;;;;;;10.67;6.97;;;38.40;24.00;;;;;;5078475;28;20863;-87
2021/08/14 08:47:02;;;;;;;15.37;7.63;;;38.00;24.10;;;;;;5075578;28;20489;-87
2021/08/14 08:49:30;;;;;;;12.10;7.20;;;37.40;25.40;;;;;;5075690;28;20801;-88
2021/08/14 08:51:57;;;;;;;13.17;7.67;;;37.90;24.60;;;;;;5076101;28;20529;-88
2021/08/14 08:54:25;;;;;;;12.40;7.93;;;37.00;25.40;;;;;;5075402;28;20501;-89
2021/08/14 08:56:52;;;;;;;18.90;7.70;;;37.30;25.20;;;;;;5074776;28;21019;-88
2021/08/14 08:59:19;;;;;;;15.70;7.43;;;36.50;26.00;;;;;;5075251;28;20459;-88
2021/08/14 09:01:46;;;;;;;16.00;6.43;;;36.30;25.80;;;;;;5075320;28;20485;-89
2021/08/14 09:04:21;;;;;;;18.43;7.00;;;36.20;26.30;;;;;;5075084;28;20508;-90
2021/08/14 09:06:48;;;;;;;13.33;7.07;;;35.90;25.80;;;;;;5082982;28;20439;-89
2021/08/14 09:09:15;;;;;;;11.57;6.50;;;35.70;26.30;;;;;;5077389;28;20538;-89
2021/08/14 09:11:50;;;;;;;9.00;6.30;;;35.60;26.90;;;;;;5076965;28;20447;-88
2021/08/14 09:14:17;;;;;;;10.17;6.70;;;34.60;27.70;;;;;;5075980;28;20467;-88
2021/08/14 09:16:45;;;;;;;8.50;6.10;;;34.10;27.10;;;;;;5074836;28;20506;-88
2021/08/14 09:19:22;;;;;;;24.23;6.13;;;34.40;27.30;;;;;;5075211;28;20505;-88
2021/08/14 09:21:50;;;;;;;11.77;5.90;;;34.70;27.10;;;;;;5074305;28;20436;-89
2021/08/14 09:24:31;;;;;;;11.30;6.60;;;34.80;27.10;;;;;;5073752;28;20534;-88
2021/08/14 09:27:04;;;;;;;20.97;6.90;;;34.90;26.30;;;;;;5074098;28;20505;-88
2021/08/14 09:29:33;;;;;;;11.83;6.37;;;34.10;27.20;;;;;;5074028;28;20428;-88
2021/08/14 09:32:01;;;;;;;11.40;5.93;;;34.40;27.40;;;;;;5076780;28;20451;-89
2021/08/14 09:34:28;;;;;;;11.33;6.47;;;33.90;27.50;;;;;;5075295;28;20529;-88
2021/08/14 09:37:03;;;;;;;11.80;6.90;;;34.10;27.30;;;;;;5074470;28;20988;-88
2021/08/14 09:39:32;;;;;;;13.63;5.60;;;33.80;27.00;;;;;;5074867;28;20491;-88
2021/08/14 09:42:06;;;;;;;24.00;6.37;;;33.80;27.80;;;;;;5075298;28;20455;-88
2021/08/14 09:44:36;;;;;;;13.80;6.20;;;33.90;27.70;;;;;;5079775;28;20841;-89
2021/08/14 09:47:09;;;;;;;7.60;5.83;;;33.70;27.70;;;;;;5078148;28;20446;-89
2021/08/14 09:49:53;;;;;;;15.03;6.83;;;33.80;27.90;;;;;;5075873;28;20773;-89
2021/08/14 09:52:21;;;;;;;12.40;6.50;;;34.10;26.90;;;;;;5073790;28;20475;-89
2021/08/14 09:54:49;;;;;;;10.83;6.80;;;34.20;27.40;;;;;;5073555;28;20580;-89
2021/08/14 09:57:18;;;;;;;10.97;6.50;;;34.00;27.10;;;;;;5073412;28;20525;-89
2021/08/14 09:59:46;;;;;;;8.80;6.43;;;33.80;27.60;;;;;;5075995;28;20457;-89
2021/08/14 10:02:18;;;;;;;10.03;6.30;;;33.00;28.30;;;;;;5092789;28;20446;-88
2021/08/14 10:04:46;;;;;;;8.53;5.60;;;33.10;28.50;;;;;;5087702;28;20474;-89
2021/08/14 10:07:15;;;;;;;12.57;6.70;;;33.40;28.30;;;;;;5073497;28;20452;-90
2021/08/14 10:09:44;;;;;;;9.97;6.53;;;34.00;26.90;;;;;;5073718;28;20480;-87
2021/08/14 10:12:13;;;;;;;26.00;7.10;;;34.10;27.30;;;;;;5074014;28;20518;-88
2021/08/14 10:14:43;;;;;;;10.50;6.00;;;34.30;27.10;;;;;;5073851;28;20863;-88
2021/08/14 10:17:11;;;;;;;19.73;6.90;;;34.50;26.50;;;;;;5074841;28;20488;-88
2021/08/14 10:19:38;;;;;;;13.17;7.37;;;33.80;27.30;;;;;;5074437;28;20459;-89
2021/08/14 10:22:07;;;;;;;28.27;7.10;;;33.90;27.80;;;;;;5088352;28;20466;-88
2021/08/14 10:24:38;;;;;;;12.90;7.53;;;34.10;27.50;;;;;;5094922;28;21046;-88
2021/08/14 10:27:06;;;;;;;12.87;7.10;;;34.20;27.40;;;;;;5091958;28;20443;-88
2021/08/14 10:29:48;;;;;;;24.30;7.00;;;34.80;26.70;;;;;;5090042;28;20444;-89
2021/08/14 10:32:49;;;;;;;13.83;6.60;;;34.90;26.30;;;;;;5096637;28;20497;-88
2021/08/14 10:35:39;;;;;;;17.27;6.10;;;34.90;26.70;;;;;;5099994;28;20447;-88
2021/08/14 10:38:39;;;;;;;12.60;7.07;;;34.90;26.30;;;;;;5078018;28;20837;-87
2021/08/14 10:41:07;;;;;;;11.93;6.20;;;34.60;26.60;;;;;;5077741;28;20465;-88
2021/08/14 10:44:03;;;;;;;11.30;6.50;;;34.40;27.30;;;;;;5077512;28;21004;-88
2021/08/14 10:46:42;;;;;;;14.37;6.27;;;34.40;27.00;;;;;;5078378;28;20448;-89
2021/08/14 10:49:10;;;;;;;20.43;6.50;;;34.20;27.50;;;;;;5078898;28;20439;-90
2021/08/14 10:52:16;;;;;;;8.43;6.93;;;33.90;28.20;;;;;;5077587;28;20475;-90
2021/08/14 10:55:09;;;;;;;13.83;7.17;;;33.80;29.20;;;;;;5076431;28;20524;-89
2021/08/14 10:57:48;;;;;;;10.40;6.60;;;34.10;28.10;;;;;;5077688;28;20569;-89
2021/08/14 11:00:37;;;;;;;12.83;7.20;;;34.20;27.90;;;;;;5077967;28;20447;-89
2021/08/14 11:03:14;;;;;;;12.70;6.57;;;34.40;27.80;;;;;;5070733;28;20436;-87
2021/08/14 11:05:45;;;;;;;10.00;6.53;;;34.60;27.40;;;;;;5081416;28;20560;-87
2021/08/14 11:08:29;;;;;;;14.77;7.60;;;34.80;27.40;;;;;;5079766;28;20431;-88
2021/08/14 11:10:57;;;;;;;9.83;7.00;;;34.40;27.60;;;;;;5079676;28;20544;-88
2021/08/14 11:14:11;;;;;;;9.57;6.73;;;34.40;28.30;;;;;;5077719;28;20968;-88
2021/08/14 11:17:01;;;;;;;9.40;6.80;;;34.20;28.10;;;;;;5079835;28;20473;-88
2021/08/14 11:19:49;;;;;;;13.37;6.67;;;34.40;28.60;;;;;;5089572;28;20467;-88
2021/08/14 11:22:31;;;;;;;11.67;7.10;;;34.40;27.90;;;;;;5085286;28;20489;-89
2021/08/14 11:25:01;;;;;;;13.40;6.70;;;34.20;28.40;;;;;;5076844;28;20454;-89
2021/08/14 11:27:30;;;;;;;11.73;6.87;;;34.60;27.70;;;;;;5076376;28;20451;-86
2021/08/14 11:30:03;;;;;;;15.90;7.47;;;34.60;27.70;;;;;;5076646;28;20447;-87
2021/08/14 11:32:31;;;;;;;10.70;6.40;;;34.60;27.80;;;;;;5076136;28;20465;-87
2021/08/14 11:35:00;;;;;;;8.80;6.87;;;34.30;27.90;;;;;;5076391;28;20463;-88
2021/08/14 11:37:28;;;;;;;13.30;7.60;;;34.30;27.70;;;;;;5075826;28;20475;-89
2021/08/14 11:40:04;;;;;;;12.03;7.67;;;34.50;27.60;;;;;;5076504;28;20481;-89
2021/08/14 11:42:33;;;;;;;9.27;6.97;;;34.20;28.10;;;;;;5076072;28;20885;-89
2021/08/14 11:45:01;;;;;;;9.23;6.50;;;34.00;28.60;;;;;;5076284;28;20471;-88
2021/08/14 11:47:33;;;;;;;11.80;6.87;;;33.90;29.30;;;;;;5076200;28;20478;-88
2021/08/14 11:50:04;;;;;;;10.53;6.40;;;34.10;28.20;;;;;;5075916;28;20467;-88
2021/08/14 11:52:31;;;;;;;17.23;6.83;;;34.20;28.20;;;;;;5076559;28;20958;-88
2021/08/14 11:55:01;;;;;;;13.90;7.40;;;34.00;28.70;;;;;;5076443;28;20483;-87
2021/08/14 11:57:30;;;;;;;13.07;6.13;;;34.40;28.20;;;;;;5076218;28;20471;-88
2021/08/14 11:59:59;;;;;;;14.37;6.87;;;34.30;28.00;;;;;;5076037;28;20479;-88
2021/08/14 12:02:27;;;;;;;16.10;7.77;;;34.40;28.00;;;;;;5075592;28;20451;-88
2021/08/14 12:04:54;;;;;;;16.70;6.80;;;34.70;28.10;;;;;;5075755;28;20475;-87
2021/08/14 12:07:23;;;;;;;10.23;6.13;;;34.90;27.90;;;;;;5075447;28;20442;-87
2021/08/14 12:09:52;;;;;;;15.90;6.97;;;34.50;27.90;;;;;;5085161;28;20477;-87
2021/08/14 12:12:20;;;;;;;15.20;7.40;;;34.60;28.00;;;;;;5076725;28;20439;-87
2021/08/14 12:14:48;;;;;;;9.30;6.60;;;34.50;27.60;;;;;;5075325;28;20451;-88
2021/08/14 12:17:15;;;;;;;13.13;6.13;;;34.20;27.70;;;;;;5075967;28;20980;-87
2021/08/14 12:19:53;;;;;;;14.33;6.73;;;34.40;27.90;;;;;;5075536;28;20828;-88
2021/08/14 12:22:21;;;;;;;11.10;6.20;;;34.60;27.30;;;;;;5075528;28;20534;-87
2021/08/14 12:24:50;;;;;;;12.33;7.30;;;34.80;27.40;;;;;;5075291;28;20474;-87
2021/08/14 12:27:28;;;;;;;16.43;6.50;;;34.60;27.60;;;;;;5075355;28;20455;-87
2021/08/14 12:30:14;;;;;;;12.53;7.50;;;34.70;27.30;;;;;;5074908;28;20933;-87
2021/08/14 12:32:41;;;;;;;18.20;7.03;;;34.60;27.30;;;;;;5075042;28;20416;-88
2021/08/14 12:35:16;;;;;;;13.00;6.40;;;34.70;27.20;;;;;;5075258;28;21042;-88
2021/08/14 12:37:44;;;;;;;9.57;7.30;;;34.80;27.80;;;;;;5074823;28;20524;-88
2021/08/14 12:40:15;;;;;;;14.80;7.97;;;34.50;26.90;;;;;;5075165;28;20447;-88
2021/08/14 12:42:42;;;;;;;11.87;7.30;;;34.70;26.90;;;;;;5075127;28;20408;-88
2021/08/14 12:45:16;;;;;;;9.70;6.50;;;34.90;27.10;;;;;;5074995;28;20468;-88